Time;durP1;ratioP1;P1;durP2;ratioP2;P2;SDS_P1;SDS_P2;PMS_P1;PMS_P2;Temp;Humidity;BMP_temperature;BMP_pressure;BME280_temperature;BME280_humidity;BME280_pressure;Samples;Min_cycle;Max_cycle;Signal;HPM_P1;HPM_P2
2024/01/29 00:00:03;;;;;;;10.13;9.63;;;;;;;;;;5027993;28;20063;-64
2024/01/29 00:02:30;;;;;;;9.90;9.40;;;;;;;;;;5025822;28;20079;-64
2024/01/29 00:04:55;;;;;;;9.95;9.45;;;;;;;;;;5037838;28;20048;-64
2024/01/29 00:07:21;;;;;;;9.70;9.30;;;;;;;;;;5026262;28;20029;-64
2024/01/29 00:09:47;;;;;;;10.30;9.80;;;;;;;;;;5023762;28;20041;-63
2024/01/29 00:12:12;;;;;;;10.00;9.50;;;;;;;;;;5028479;28;20017;-62
2024/01/29 00:14:37;;;;;;;10.60;10.10;;;;;;;;;;5023530;28;20035;-62
2024/01/29 00:17:03;;;;;;;10.30;9.80;;;;;;;;;;5030942;28;20029;-61
2024/01/29 00:19:28;;;;;;;10.15;9.65;;;;;;;;;;5026529;28;20028;-62
2024/01/29 00:21:53;;;;;;;9.65;9.25;;;;;;;;;;5028191;28;20059;-62
2024/01/29 00:24:19;;;;;;;9.82;9.32;;;;;;;;;;5028107;28;20032;-62
2024/01/29 00:26:44;;;;;;;9.82;9.32;;;;;;;;;;5028786;28;20499;-62
2024/01/29 00:29:10;;;;;;;9.95;9.45;;;;;;;;;;5023303;28;20142;-62
2024/01/29 00:31:35;;;;;;;9.30;8.90;;;;;;;;;;5026900;28;20388;-62
2024/01/29 00:34:00;;;;;;;9.82;9.38;;;;;;;;;;5021147;28;20021;-62
2024/01/29 00:36:26;;;;;;;9.70;9.20;;;;;;;;;;5031363;28;20399;-62
2024/01/29 00:38:51;;;;;;;10.15;9.65;;;;;;;;;;5018316;28;20506;-62
2024/01/29 00:41:16;;;;;;;10.57;10.07;;;;;;;;;;5026277;28;20037;-62
2024/01/29 00:43:42;;;;;;;9.68;9.25;;;;;;;;;;5027940;28;20049;-63
2024/01/29 00:46:07;;;;;;;9.75;9.30;;;;;;;;;;5024763;28;20028;-63
2024/01/29 00:48:33;;;;;;;10.25;9.75;;;;;;;;;;5029881;28;20068;-62
2024/01/29 00:50:58;;;;;;;10.10;9.60;;;;;;;;;;5025937;28;20067;-62
2024/01/29 00:53:24;;;;;;;10.73;10.15;;;;;;;;;;5028838;28;20503;-62
2024/01/29 00:55:49;;;;;;;10.10;9.60;;;;;;;;;;5026556;28;20029;-62
2024/01/29 00:58:15;;;;;;;10.02;9.52;;;;;;;;;;5030946;28;20124;-62
2024/01/29 01:00:41;;;;;;;10.10;9.60;;;;;;;;;;5026061;28;20025;-62
2024/01/29 01:03:07;;;;;;;10.20;9.70;;;;;;;;;;5029111;28;20033;-62
2024/01/29 01:05:33;;;;;;;10.57;10.07;;;;;;;;;;5030074;28;20495;-62
2024/01/29 01:07:59;;;;;;;10.10;9.60;;;;;;;;;;5026347;28;20220;-63
2024/01/29 01:10:24;;;;;;;10.10;9.60;;;;;;;;;;5027274;28;20593;-63
2024/01/29 01:12:49;;;;;;;10.20;9.70;;;;;;;;;;5029561;28;20091;-63
2024/01/29 01:15:15;;;;;;;10.50;10.00;;;;;;;;;;5034095;28;20025;-63
2024/01/29 01:17:40;;;;;;;11.02;10.43;;;;;;;;;;5032888;28;20581;-63
2024/01/29 01:20:06;;;;;;;10.00;9.50;;;;;;;;;;5028656;28;20502;-63
2024/01/29 01:22:32;;;;;;;9.70;9.30;;;;;;;;;;5030046;28;20022;-63
2024/01/29 01:24:57;;;;;;;9.50;9.10;;;;;;;;;;5031542;28;20074;-63
2024/01/29 01:27:22;;;;;;;10.02;9.52;;;;;;;;;;5029270;28;20036;-63
2024/01/29 01:29:47;;;;;;;10.35;9.85;;;;;;;;;;5032348;28;20021;-63
2024/01/29 01:32:13;;;;;;;10.32;9.82;;;;;;;;;;5029064;28;20026;-63
2024/01/29 01:34:38;;;;;;;9.50;9.10;;;;;;;;;;5034485;28;20025;-63
2024/01/29 01:37:04;;;;;;;9.95;9.45;;;;;;;;;;5029581;28;20025;-64
2024/01/29 01:39:30;;;;;;;9.75;9.35;;;;;;;;;;5031764;28;20101;-63
2024/01/29 01:41:56;;;;;;;10.30;9.80;;;;;;;;;;5028290;28;20112;-63
2024/01/29 01:44:21;;;;;;;10.27;9.77;;;;;;;;;;5030855;28;20030;-63
2024/01/29 01:46:46;;;;;;;9.70;9.30;;;;;;;;;;5033461;28;20475;-63
2024/01/29 01:49:12;;;;;;;9.32;8.93;;;;;;;;;;5028692;28;20022;-63
2024/01/29 01:51:37;;;;;;;10.07;9.60;;;;;;;;;;5019378;28;20505;-63
2024/01/29 01:54:03;;;;;;;10.07;9.57;;;;;;;;;;5028910;28;20062;-63
2024/01/29 01:56:29;;;;;;;10.20;9.70;;;;;;;;;;5037250;28;20534;-63
2024/01/29 01:58:55;;;;;;;9.43;9.02;;;;;;;;;;5026937;28;20454;-61
2024/01/29 02:01:20;;;;;;;9.90;9.40;;;;;;;;;;5032275;28;20052;-63
2024/01/29 02:03:45;;;;;;;9.90;9.40;;;;;;;;;;5055194;28;20064;-61
2024/01/29 02:06:11;;;;;;;10.10;9.60;;;;;;;;;;5031876;28;20087;-63
2024/01/29 02:08:37;;;;;;;9.70;9.30;;;;;;;;;;5036460;28;20014;-61
2024/01/29 02:11:02;;;;;;;9.85;9.35;;;;;;;;;;5029505;28;20025;-63
2024/01/29 02:13:28;;;;;;;9.60;9.20;;;;;;;;;;5033401;28;20554;-63
2024/01/29 02:15:53;;;;;;;9.50;9.10;;;;;;;;;;5047353;28;20048;-63
2024/01/29 02:18:18;;;;;;;10.00;9.50;;;;;;;;;;5033997;28;20025;-63
2024/01/29 02:20:44;;;;;;;9.95;9.45;;;;;;;;;;5034934;28;20365;-63
2024/01/29 02:23:09;;;;;;;10.07;9.57;;;;;;;;;;5031877;28;20534;-64
2024/01/29 02:25:35;;;;;;;9.50;9.10;;;;;;;;;;5033538;28;20096;-63
2024/01/29 02:28:00;;;;;;;10.20;9.70;;;;;;;;;;5031878;28;20104;-63
2024/01/29 02:30:26;;;;;;;9.27;8.88;;;;;;;;;;5033238;28;20472;-63
2024/01/29 02:32:52;;;;;;;9.93;9.43;;;;;;;;;;5026811;28;20036;-63
2024/01/29 02:35:17;;;;;;;9.65;9.25;;;;;;;;;;5029246;28;20017;-63
2024/01/29 02:37:43;;;;;;;9.60;9.20;;;;;;;;;;5044030;28;20076;-63
2024/01/29 02:40:09;;;;;;;9.50;9.10;;;;;;;;;;5030454;28;20128;-63
2024/01/29 02:42:34;;;;;;;9.27;8.88;;;;;;;;;;5032618;28;20071;-63
2024/01/29 02:44:59;;;;;;;10.00;9.50;;;;;;;;;;5025023;28;20025;-63
2024/01/29 02:47:25;;;;;;;10.25;9.75;;;;;;;;;;5027017;28;20028;-63
2024/01/29 02:49:50;;;;;;;9.52;9.13;;;;;;;;;;5028800;28;20036;-63
2024/01/29 02:52:16;;;;;;;9.63;9.23;;;;;;;;;;5033221;28;20045;-63
2024/01/29 02:54:41;;;;;;;10.35;9.85;;;;;;;;;;5030095;28;20021;-63
2024/01/29 02:57:07;;;;;;;10.25;9.75;;;;;;;;;;5032945;28;20515;-63
2024/01/29 02:59:32;;;;;;;9.90;9.40;;;;;;;;;;5031421;28;20018;-63
2024/01/29 03:01:58;;;;;;;10.63;10.13;;;;;;;;;;5029998;28;20521;-62
2024/01/29 03:04:24;;;;;;;9.65;9.25;;;;;;;;;;5029220;28;20021;-62
2024/01/29 03:06:49;;;;;;;10.20;9.70;;;;;;;;;;5026285;28;20493;-63
2024/01/29 03:09:15;;;;;;;10.20;9.70;;;;;;;;;;5036583;28;20013;-63
2024/01/29 03:11:41;;;;;;;10.20;9.70;;;;;;;;;;5032312;28;20067;-63
2024/01/29 03:14:06;;;;;;;10.25;9.75;;;;;;;;;;5033536;28;20029;-63
2024/01/29 03:16:31;;;;;;;9.88;9.38;;;;;;;;;;5029496;28;20149;-63
2024/01/29 03:18:57;;;;;;;9.90;9.45;;;;;;;;;;5030408;28;20040;-63
2024/01/29 03:21:22;;;;;;;9.48;9.07;;;;;;;;;;5032482;28;20456;-63
2024/01/29 03:23:47;;;;;;;10.52;10.02;;;;;;;;;;5028552;28;20029;-62
2024/01/29 03:26:13;;;;;;;10.10;9.60;;;;;;;;;;5019758;28;20029;-62
2024/01/29 03:28:39;;;;;;;9.73;9.32;;;;;;;;;;5026605;28;20058;-62
2024/01/29 03:31:04;;;;;;;10.20;9.70;;;;;;;;;;5029074;28;20380;-62
2024/01/29 03:33:30;;;;;;;9.77;9.38;;;;;;;;;;5028453;28;20025;-62
2024/01/29 03:35:55;;;;;;;9.75;9.30;;;;;;;;;;5030153;28;20036;-62
2024/01/29 03:38:20;;;;;;;10.23;9.73;;;;;;;;;;5029114;28;20092;-62
2024/01/29 03:40:46;;;;;;;9.50;9.10;;;;;;;;;;5025327;28;20025;-62
2024/01/29 03:43:11;;;;;;;9.70;9.30;;;;;;;;;;5024229;28;20458;-62
2024/01/29 03:45:37;;;;;;;9.30;8.90;;;;;;;;;;5030498;28;20443;-62
2024/01/29 03:48:02;;;;;;;10.00;9.50;;;;;;;;;;5026305;28;20017;-62
2024/01/29 03:50:28;;;;;;;9.32;8.93;;;;;;;;;;5030994;28;20497;-62
2024/01/29 03:52:53;;;;;;;10.48;9.98;;;;;;;;;;5029391;28;20053;-62
2024/01/29 03:55:18;;;;;;;9.50;9.10;;;;;;;;;;5031574;28;20021;-62
2024/01/29 03:57:44;;;;;;;10.13;9.63;;;;;;;;;;5026393;28;20048;-62
2024/01/29 04:00:09;;;;;;;9.90;9.40;;;;;;;;;;5036346;28;20017;-61
2024/01/29 04:02:35;;;;;;;9.90;9.40;;;;;;;;;;5025575;28;20393;-61
2024/01/29 04:05:00;;;;;;;10.27;9.77;;;;;;;;;;5031811;28;20029;-62
2024/01/29 04:07:27;;;;;;;10.15;9.65;;;;;;;;;;5014873;28;20022;-62
2024/01/29 04:09:52;;;;;;;10.27;9.77;;;;;;;;;;5032503;28;20032;-63
2024/01/29 04:12:17;;;;;;;9.70;9.30;;;;;;;;;;5031270;28;20017;-63
2024/01/29 04:14:43;;;;;;;11.00;10.40;;;;;;;;;;5028222;28;20403;-63
2024/01/29 04:17:09;;;;;;;10.77;10.20;;;;;;;;;;5033713;28;20104;-61
2024/01/29 04:19:34;;;;;;;9.98;9.50;;;;;;;;;;5052879;28;20029;-61
2024/01/29 04:21:59;;;;;;;10.70;10.20;;;;;;;;;;5037603;28;20479;-61
2024/01/29 04:24:25;;;;;;;10.77;10.27;;;;;;;;;;5031396;28;20051;-62
2024/01/29 04:26:50;;;;;;;10.70;10.20;;;;;;;;;;5028310;28;20048;-61
2024/01/29 04:29:16;;;;;;;10.70;10.20;;;;;;;;;;5027007;28;20395;-61
2024/01/29 04:31:41;;;;;;;10.75;10.25;;;;;;;;;;5024494;28;20029;-63
2024/01/29 04:34:06;;;;;;;10.93;10.43;;;;;;;;;;5026319;28;20025;-63
2024/01/29 04:36:32;;;;;;;10.60;10.10;;;;;;;;;;5030406;28;20017;-63
2024/01/29 04:38:58;;;;;;;10.82;10.32;;;;;;;;;;5025380;28;20025;-62
2024/01/29 04:41:23;;;;;;;10.85;10.35;;;;;;;;;;5045208;28;20014;-63
2024/01/29 04:43:48;;;;;;;11.15;10.60;;;;;;;;;;5029157;28;20021;-62
2024/01/29 04:46:14;;;;;;;11.45;10.85;;;;;;;;;;5033167;28;20022;-62
2024/01/29 04:48:39;;;;;;;10.57;10.07;;;;;;;;;;5029968;28;20436;-62
2024/01/29 04:51:08;;;;;;;10.57;10.07;;;;;;;;;;5034499;28;20029;-62
2024/01/29 04:53:34;;;;;;;12.48;11.77;;;;;;;;;;5027711;28;20041;-62
2024/01/29 04:56:03;;;;;;;11.02;10.43;;;;;;;;;;5032203;28;20018;-62
2024/01/29 04:58:28;;;;;;;10.60;10.10;;;;;;;;;;5032217;28;20025;-62
2024/01/29 05:00:54;;;;;;;10.60;10.10;;;;;;;;;;5027682;28;20044;-63
2024/01/29 05:03:19;;;;;;;11.02;10.43;;;;;;;;;;5033034;28;20480;-64
2024/01/29 05:05:44;;;;;;;11.30;10.70;;;;;;;;;;5030786;28;20018;-62
2024/01/29 05:08:10;;;;;;;11.40;10.80;;;;;;;;;;5041636;28;20050;-64
2024/01/29 05:10:35;;;;;;;10.93;10.35;;;;;;;;;;5032023;28;20025;-63
2024/01/29 05:13:00;;;;;;;10.90;10.38;;;;;;;;;;5037043;28;20503;-63
2024/01/29 05:15:27;;;;;;;9.93;9.52;;;;;;;;;;5027460;28;20438;-63
2024/01/29 05:17:53;;;;;;;11.30;10.70;;;;;;;;;;5035284;28;20021;-63
2024/01/29 05:20:18;;;;;;;11.15;10.55;;;;;;;;;;5038625;28;20080;-62
2024/01/29 05:22:43;;;;;;;10.50;10.00;;;;;;;;;;5027628;28;20414;-63
2024/01/29 05:25:09;;;;;;;10.30;9.80;;;;;;;;;;5030861;28;20022;-63
2024/01/29 05:27:34;;;;;;;11.35;10.75;;;;;;;;;;5029385;28;20018;-63
2024/01/29 05:30:00;;;;;;;11.18;10.57;;;;;;;;;;5026484;28;20018;-63
2024/01/29 05:32:25;;;;;;;10.98;10.38;;;;;;;;;;5030156;28;20471;-63
2024/01/29 05:34:50;;;;;;;10.48;9.98;;;;;;;;;;5029397;28;20108;-63
2024/01/29 05:37:16;;;;;;;10.80;10.23;;;;;;;;;;5028686;28;20033;-63
2024/01/29 05:39:41;;;;;;;10.98;10.38;;;;;;;;;;5032107;28;20032;-63
2024/01/29 05:42:07;;;;;;;10.55;10.05;;;;;;;;;;5031242;28;20029;-64
2024/01/29 05:44:32;;;;;;;10.20;9.70;;;;;;;;;;5026710;28;20050;-63
2024/01/29 05:46:57;;;;;;;11.27;10.68;;;;;;;;;;5031400;28;20017;-62
2024/01/29 05:49:23;;;;;;;10.15;9.65;;;;;;;;;;5028331;28;20013;-61
2024/01/29 05:51:48;;;;;;;10.43;9.93;;;;;;;;;;5027185;28;20108;-63
2024/01/29 05:54:13;;;;;;;10.13;9.63;;;;;;;;;;5026555;28;20024;-62
2024/01/29 05:56:42;;;;;;;10.20;9.70;;;;;;;;;;5027847;28;20384;-64
2024/01/29 05:59:08;;;;;;;10.32;9.82;;;;;;;;;;5028145;28;20488;-62
2024/01/29 06:01:34;;;;;;;9.85;9.35;;;;;;;;;;5025078;28;20064;-63
2024/01/29 06:03:59;;;;;;;10.70;10.13;;;;;;;;;;5025798;28;20048;-62
2024/01/29 06:06:24;;;;;;;10.32;9.82;;;;;;;;;;5032012;28;20018;-62
2024/01/29 06:08:50;;;;;;;10.65;10.15;;;;;;;;;;5025908;28;20075;-63
2024/01/29 06:11:15;;;;;;;10.35;9.85;;;;;;;;;;5027134;28;20026;-64
2024/01/29 06:13:40;;;;;;;10.55;10.05;;;;;;;;;;5017434;28;20488;-64
2024/01/29 06:16:06;;;;;;;11.27;10.68;;;;;;;;;;5030977;28;20116;-65
2024/01/29 06:18:31;;;;;;;10.07;9.57;;;;;;;;;;5026861;28;20506;-67
2024/01/29 06:20:57;;;;;;;11.35;10.75;;;;;;;;;;5029199;28;20451;-65
2024/01/29 06:23:22;;;;;;;10.93;10.32;;;;;;;;;;5033137;28;20029;-67
2024/01/29 06:25:47;;;;;;;9.93;9.43;;;;;;;;;;5032444;28;20060;-65
2024/01/29 06:28:13;;;;;;;9.68;9.25;;;;;;;;;;5030353;28;20072;-65
2024/01/29 06:30:39;;;;;;;10.32;9.82;;;;;;;;;;5027198;28;20041;-66
2024/01/29 06:33:05;;;;;;;10.95;10.35;;;;;;;;;;5029468;28;20077;-66
2024/01/29 06:35:30;;;;;;;10.63;10.10;;;;;;;;;;5029620;28;20022;-65
2024/01/29 06:37:56;;;;;;;10.50;10.00;;;;;;;;;;5029685;28;20380;-65
2024/01/29 06:40:26;;;;;;;10.13;9.63;;;;;;;;;;5031685;28;20057;-64
2024/01/29 06:42:52;;;;;;;11.15;10.55;;;;;;;;;;5028597;28;20048;-64
2024/01/29 06:45:18;;;;;;;11.23;10.63;;;;;;;;;;5028278;28;20013;-64
2024/01/29 06:47:43;;;;;;;10.00;9.50;;;;;;;;;;5026120;28;20504;-62
2024/01/29 06:50:08;;;;;;;10.32;9.82;;;;;;;;;;5023290;28;20022;-64
2024/01/29 06:52:34;;;;;;;10.05;9.55;;;;;;;;;;5022740;28;20136;-64
2024/01/29 06:55:00;;;;;;;9.88;9.38;;;;;;;;;;5027280;28;20037;-63
2024/01/29 06:57:25;;;;;;;10.15;9.65;;;;;;;;;;5028281;28;20032;-64
2024/01/29 06:59:50;;;;;;;10.40;9.90;;;;;;;;;;5027299;28;20013;-63
2024/01/29 07:02:16;;;;;;;10.18;9.68;;;;;;;;;;5027673;28;20060;-63
2024/01/29 07:04:42;;;;;;;9.57;9.18;;;;;;;;;;5028897;28;20116;-62
2024/01/29 07:07:08;;;;;;;9.98;9.48;;;;;;;;;;5028118;28;20026;-63
2024/01/29 07:09:33;;;;;;;10.15;9.65;;;;;;;;;;5026792;28;20037;-64
2024/01/29 07:12:00;;;;;;;9.95;9.45;;;;;;;;;;5023635;28;20029;-64
2024/01/29 07:14:25;;;;;;;9.07;8.68;;;;;;;;;;5029931;28;20029;-64
2024/01/29 07:16:51;;;;;;;8.98;8.57;;;;;;;;;;5022859;28;20034;-64
2024/01/29 07:19:25;;;;;;;9.82;9.32;;;;;;;;;;5021442;28;20165;-64
2024/01/29 07:21:51;;;;;;;9.85;9.38;;;;;;;;;;5024706;28;20043;-65
2024/01/29 07:24:16;;;;;;;9.40;9.00;;;;;;;;;;5035162;28;20551;-63
2024/01/29 07:26:41;;;;;;;9.70;9.30;;;;;;;;;;5028875;28;20062;-64
2024/01/29 07:29:07;;;;;;;9.88;9.40;;;;;;;;;;5016322;28;20071;-63
2024/01/29 07:31:32;;;;;;;10.75;10.25;;;;;;;;;;5021960;28;20117;-63
2024/01/29 07:33:57;;;;;;;10.38;9.88;;;;;;;;;;5023524;28;20037;-61
2024/01/29 07:36:23;;;;;;;10.60;10.10;;;;;;;;;;5026590;28;20424;-59
2024/01/29 07:38:48;;;;;;;10.95;10.45;;;;;;;;;;5024906;28;20104;-63
2024/01/29 07:41:14;;;;;;;10.63;10.13;;;;;;;;;;5025061;28;20032;-66
2024/01/29 07:43:39;;;;;;;11.18;10.68;;;;;;;;;;5026308;28;20056;-63
2024/01/29 07:46:05;;;;;;;10.65;10.15;;;;;;;;;;5017849;28;20447;-68
2024/01/29 07:48:30;;;;;;;10.70;10.20;;;;;;;;;;5022180;28;20013;-65
2024/01/29 07:50:56;;;;;;;11.60;11.10;;;;;;;;;;5018578;28;20026;-64
2024/01/29 07:53:22;;;;;;;10.90;10.40;;;;;;;;;;5022917;28;20085;-64
2024/01/29 07:55:47;;;;;;;10.85;10.35;;;;;;;;;;5023108;28;20017;-64
2024/01/29 07:58:13;;;;;;;11.40;10.90;;;;;;;;;;5022398;28;20036;-65
2024/01/29 08:00:39;;;;;;;12.50;11.90;;;;;;;;;;5022961;28;20033;-62
2024/01/29 08:03:06;;;;;;;11.15;10.65;;;;;;;;;;5025140;28;20682;-62
2024/01/29 08:05:31;;;;;;;10.73;10.23;;;;;;;;;;5027292;28;20027;-63
2024/01/29 08:07:57;;;;;;;11.00;10.50;;;;;;;;;;5037473;28;20097;-61
2024/01/29 08:10:23;;;;;;;11.38;10.88;;;;;;;;;;5030267;28;20040;-63
2024/01/29 08:12:48;;;;;;;10.90;10.40;;;;;;;;;;5027074;28;20021;-64
2024/01/29 08:15:14;;;;;;;11.05;10.55;;;;;;;;;;5025016;28;20037;-63
2024/01/29 08:17:40;;;;;;;11.05;10.55;;;;;;;;;;5020808;28;20079;-64
2024/01/29 08:20:05;;;;;;;11.43;10.93;;;;;;;;;;5019238;28;20112;-64
2024/01/29 08:22:31;;;;;;;11.40;10.90;;;;;;;;;;5026462;28;20035;-67
2024/01/29 08:24:56;;;;;;;11.55;11.05;;;;;;;;;;5019122;28;20054;-66
2024/01/29 08:27:21;;;;;;;11.80;11.30;;;;;;;;;;5024243;28;20101;-60
2024/01/29 08:29:47;;;;;;;11.98;11.48;;;;;;;;;;5023497;28;20456;-63
2024/01/29 08:32:12;;;;;;;11.55;11.05;;;;;;;;;;5026584;28;20025;-63
2024/01/29 08:34:38;;;;;;;11.60;11.10;;;;;;;;;;5026893;28;20013;-63
2024/01/29 08:37:03;;;;;;;11.88;11.38;;;;;;;;;;5023150;28;20038;-66
2024/01/29 08:39:30;;;;;;;12.00;11.50;;;;;;;;;;5026325;28;20512;-64
2024/01/29 08:41:55;;;;;;;11.88;11.38;;;;;;;;;;5024702;28;20484;-62
2024/01/29 08:44:20;;;;;;;11.73;11.23;;;;;;;;;;5027305;28;20034;-61
2024/01/29 08:46:46;;;;;;;11.63;11.13;;;;;;;;;;5023794;28;20028;-64
2024/01/29 08:49:13;;;;;;;11.55;11.05;;;;;;;;;;5022919;28;20032;-62
2024/01/29 08:51:39;;;;;;;12.02;11.52;;;;;;;;;;5025528;28;20014;-63
2024/01/29 08:54:04;;;;;;;11.70;11.20;;;;;;;;;;5019728;28;20025;-64
2024/01/29 08:56:31;;;;;;;11.65;11.15;;;;;;;;;;5024617;28;20076;-63
2024/01/29 08:58:57;;;;;;;11.90;11.40;;;;;;;;;;5024890;28;20029;-64
2024/01/29 09:01:22;;;;;;;12.10;11.60;;;;;;;;;;5016727;28;20488;-64
2024/01/29 09:03:48;;;;;;;11.52;11.02;;;;;;;;;;5025598;28;20036;-63
2024/01/29 09:06:13;;;;;;;11.65;11.15;;;;;;;;;;5026612;28;20067;-64
2024/01/29 09:08:41;;;;;;;11.70;11.20;;;;;;;;;;5020801;28;20494;-63
2024/01/29 09:11:06;;;;;;;11.70;11.20;;;;;;;;;;5026343;28;20022;-64
2024/01/29 09:13:32;;;;;;;11.60;11.10;;;;;;;;;;5029594;28;20036;-65
2024/01/29 09:15:57;;;;;;;11.82;11.32;;;;;;;;;;5021587;28;20010;-64
2024/01/29 09:18:22;;;;;;;11.48;10.98;;;;;;;;;;5028500;28;20025;-64
2024/01/29 09:20:48;;;;;;;11.30;10.80;;;;;;;;;;5028764;28;20022;-64
2024/01/29 09:23:13;;;;;;;11.40;10.90;;;;;;;;;;5026115;28;20398;-65
2024/01/29 09:25:38;;;;;;;11.23;10.73;;;;;;;;;;5025062;28;20057;-65
2024/01/29 09:28:04;;;;;;;11.40;10.90;;;;;;;;;;5027369;28;20536;-60
2024/01/29 09:30:29;;;;;;;12.00;11.50;;;;;;;;;;5022338;28;20028;-65
2024/01/29 09:32:56;;;;;;;11.93;11.43;;;;;;;;;;5031618;28;20125;-65
2024/01/29 09:35:21;;;;;;;11.57;11.07;;;;;;;;;;5023941;28;20030;-65
2024/01/29 09:37:47;;;;;;;11.93;11.43;;;;;;;;;;5029556;28;20118;-65
2024/01/29 09:40:13;;;;;;;11.75;11.25;;;;;;;;;;5027911;28;20013;-66
2024/01/29 09:42:40;;;;;;;12.07;11.57;;;;;;;;;;5022614;28;20495;-62
2024/01/29 09:45:08;;;;;;;11.63;11.13;;;;;;;;;;5019923;28;20112;-64
2024/01/29 09:47:34;;;;;;;11.60;11.10;;;;;;;;;;5031171;28;20026;-66
2024/01/29 09:50:00;;;;;;;11.93;11.43;;;;;;;;;;5032906;28;20475;-65
2024/01/29 09:52:25;;;;;;;11.95;11.38;;;;;;;;;;5025581;28;20088;-65
2024/01/29 09:54:51;;;;;;;13.60;12.90;;;;;;;;;;5029806;28;20030;-66
2024/01/29 09:57:16;;;;;;;13.20;12.50;;;;;;;;;;5031614;28;20079;-62
2024/01/29 09:59:42;;;;;;;12.35;11.75;;;;;;;;;;5028987;28;20496;-61
2024/01/29 10:02:08;;;;;;;12.75;12.15;;;;;;;;;;5026713;28;20029;-62
2024/01/29 10:04:34;;;;;;;12.27;11.68;;;;;;;;;;5037331;28;20028;-64
2024/01/29 10:07:00;;;;;;;12.30;11.70;;;;;;;;;;5030347;28;20022;-65
2024/01/29 10:09:25;;;;;;;11.55;11.00;;;;;;;;;;5026650;28;20025;-65
2024/01/29 10:11:51;;;;;;;12.20;11.60;;;;;;;;;;5028702;28;20025;-65
2024/01/29 10:14:16;;;;;;;13.13;12.43;;;;;;;;;;5029131;28;20021;-67
2024/01/29 10:16:42;;;;;;;11.60;11.00;;;;;;;;;;5024152;28;20512;-65
2024/01/29 10:19:07;;;;;;;12.00;11.40;;;;;;;;;;5031627;28;20140;-60
2024/01/29 10:21:39;;;;;;;12.13;11.52;;;;;;;;;;5025422;28;20033;-65
2024/01/29 10:24:05;;;;;;;11.93;11.32;;;;;;;;;;5020556;28;20041;-64
2024/01/29 10:26:30;;;;;;;12.18;11.57;;;;;;;;;;5026039;28;20117;-63
2024/01/29 10:29:16;;;;;;;11.77;11.18;;;;;;;;;;5025597;28;20025;-63
2024/01/29 10:31:41;;;;;;;11.27;10.68;;;;;;;;;;5025324;28;20028;-65
2024/01/29 10:34:07;;;;;;;11.30;10.70;;;;;;;;;;5029494;28;20029;-67
2024/01/29 10:36:34;;;;;;;10.93;10.40;;;;;;;;;;5020013;28;20033;-63
2024/01/29 10:38:59;;;;;;;10.40;9.90;;;;;;;;;;5029620;28;20025;-66
2024/01/29 10:41:25;;;;;;;10.50;10.00;;;;;;;;;;5044891;28;20036;-64
2024/01/29 10:43:51;;;;;;;10.85;10.35;;;;;;;;;;5030538;28;20555;-59
2024/01/29 10:46:26;;;;;;;10.70;10.20;;;;;;;;;;5029280;28;20043;-60
2024/01/29 10:48:53;;;;;;;10.77;10.27;;;;;;;;;;5026985;28;20071;-59
2024/01/29 10:51:21;;;;;;;9.80;9.40;;;;;;;;;;5033992;28;20009;-60
2024/01/29 10:53:47;;;;;;;10.68;10.18;;;;;;;;;;5028120;28;20074;-60
2024/01/29 10:56:13;;;;;;;10.30;9.80;;;;;;;;;;5030890;28;20021;-60
2024/01/29 10:58:39;;;;;;;9.70;9.30;;;;;;;;;;5031794;28;20029;-60
2024/01/29 11:01:05;;;;;;;10.60;10.10;;;;;;;;;;5033126;28;20476;-59
2024/01/29 11:03:30;;;;;;;10.52;10.02;;;;;;;;;;5028446;28;20116;-60
2024/01/29 11:05:58;;;;;;;10.60;10.10;;;;;;;;;;5027878;28;20108;-61
2024/01/29 11:08:25;;;;;;;10.90;10.35;;;;;;;;;;5029971;28;20033;-60
2024/01/29 11:10:50;;;;;;;11.10;10.50;;;;;;;;;;5024969;28;20032;-62
2024/01/29 11:13:17;;;;;;;12.02;11.35;;;;;;;;;;5024645;28;20096;-61
2024/01/29 11:15:43;;;;;;;10.68;10.18;;;;;;;;;;5025109;28;20145;-62
2024/01/29 11:18:10;;;;;;;11.23;10.63;;;;;;;;;;5022701;28;20585;-61
2024/01/29 11:20:38;;;;;;;11.13;10.52;;;;;;;;;;5027162;28;20021;-63
2024/01/29 11:23:04;;;;;;;10.57;10.07;;;;;;;;;;5024499;28;20116;-61
2024/01/29 11:25:29;;;;;;;10.93;10.35;;;;;;;;;;5028210;28;20111;-61
2024/01/29 11:27:58;;;;;;;12.07;11.38;;;;;;;;;;5025673;28;20545;-61
2024/01/29 11:30:25;;;;;;;11.85;11.25;;;;;;;;;;5027002;28;20019;-62
2024/01/29 11:32:51;;;;;;;11.18;10.57;;;;;;;;;;5028709;28;20021;-62
2024/01/29 11:35:20;;;;;;;10.07;9.57;;;;;;;;;;5022104;28;20076;-62
2024/01/29 11:37:49;;;;;;;10.95;10.40;;;;;;;;;;5022391;28;21297;-62
2024/01/29 11:40:31;;;;;;;11.38;10.77;;;;;;;;;;5026020;28;20562;-62
2024/01/29 11:42:57;;;;;;;12.20;11.50;;;;;;;;;;5023277;28;20143;-62
2024/01/29 11:45:23;;;;;;;11.02;10.45;;;;;;;;;;5025079;28;20031;-62
2024/01/29 11:47:48;;;;;;;11.80;11.18;;;;;;;;;;5020932;28;20018;-65
2024/01/29 11:50:13;;;;;;;11.38;10.77;;;;;;;;;;5027471;28;20022;-65
2024/01/29 11:52:39;;;;;;;11.30;10.70;;;;;;;;;;5044392;28;20073;-65
2024/01/29 11:55:05;;;;;;;10.85;10.25;;;;;;;;;;5025146;28;20643;-65
2024/01/29 11:57:32;;;;;;;11.07;10.48;;;;;;;;;;5025127;28;20035;-65
2024/01/29 12:00:00;;;;;;;11.00;10.40;;;;;;;;;;5030846;28;20017;-63
2024/01/29 12:02:26;;;;;;;10.85;10.35;;;;;;;;;;5022115;28;20021;-65
2024/01/29 12:04:52;;;;;;;11.32;10.73;;;;;;;;;;5028564;28;20529;-65
2024/01/29 12:07:17;;;;;;;11.50;10.90;;;;;;;;;;5033077;28;20017;-65
2024/01/29 12:09:43;;;;;;;11.38;10.77;;;;;;;;;;5028102;28;20022;-66
2024/01/29 12:12:08;;;;;;;11.77;11.18;;;;;;;;;;5030902;28;20488;-62
2024/01/29 12:14:34;;;;;;;11.13;10.52;;;;;;;;;;5030115;28;20069;-62
2024/01/29 12:16:59;;;;;;;11.43;10.82;;;;;;;;;;5029473;28;20166;-64
2024/01/29 12:19:24;;;;;;;11.85;11.25;;;;;;;;;;5027307;28;20025;-63
2024/01/29 12:21:51;;;;;;;11.52;10.93;;;;;;;;;;5025537;28;20017;-64
2024/01/29 12:24:19;;;;;;;10.90;10.40;;;;;;;;;;5029583;28;20028;-64
2024/01/29 12:26:45;;;;;;;10.85;10.35;;;;;;;;;;5029590;28;20091;-63
2024/01/29 12:29:11;;;;;;;11.50;10.90;;;;;;;;;;5028671;28;20088;-66
2024/01/29 12:31:38;;;;;;;11.05;10.45;;;;;;;;;;5031191;28;20104;-65
2024/01/29 12:34:03;;;;;;;10.48;9.98;;;;;;;;;;5029559;28;20017;-66
2024/01/29 12:36:28;;;;;;;10.73;10.23;;;;;;;;;;5030978;28;20021;-67
2024/01/29 12:38:55;;;;;;;10.10;9.60;;;;;;;;;;5026534;28;20026;-66
2024/01/29 12:41:21;;;;;;;9.90;9.50;;;;;;;;;;5020604;28;20079;-65
2024/01/29 12:43:48;;;;;;;10.15;9.65;;;;;;;;;;5027195;28;20021;-65
2024/01/29 12:46:14;;;;;;;10.18;9.68;;;;;;;;;;5023878;28;20014;-66
2024/01/29 12:48:43;;;;;;;10.40;9.90;;;;;;;;;;5021187;28;20424;-65
2024/01/29 12:51:12;;;;;;;10.13;9.63;;;;;;;;;;5025663;28;20032;-64
2024/01/29 12:53:37;;;;;;;11.05;10.52;;;;;;;;;;5028776;28;20175;-67
2024/01/29 12:56:03;;;;;;;10.40;9.90;;;;;;;;;;5033630;28;20435;-66
2024/01/29 12:58:28;;;;;;;10.32;9.82;;;;;;;;;;5044503;28;20105;-62
2024/01/29 13:00:54;;;;;;;10.00;9.50;;;;;;;;;;5030244;28;20017;-63
2024/01/29 13:03:19;;;;;;;10.45;9.95;;;;;;;;;;5031253;28;20065;-64
2024/01/29 13:05:47;;;;;;;10.38;9.88;;;;;;;;;;5025586;28;20030;-66
2024/01/29 13:08:13;;;;;;;10.45;9.95;;;;;;;;;;5027322;28;20018;-66
2024/01/29 13:10:39;;;;;;;11.35;10.75;;;;;;;;;;5030898;28;20097;-61
2024/01/29 13:13:06;;;;;;;10.05;9.60;;;;;;;;;;5029594;28;20029;-61
2024/01/29 13:15:32;;;;;;;10.30;9.80;;;;;;;;;;5023370;28;20029;-61
2024/01/29 13:17:57;;;;;;;10.38;9.88;;;;;;;;;;5030519;28;20457;-61
2024/01/29 13:20:22;;;;;;;10.55;10.05;;;;;;;;;;5028540;28;20021;-61
2024/01/29 13:22:48;;;;;;;11.07;10.48;;;;;;;;;;5032272;28;20021;-70
2024/01/29 13:25:14;;;;;;;10.35;9.85;;;;;;;;;;5027200;28;20025;-61
2024/01/29 13:27:39;;;;;;;11.35;10.75;;;;;;;;;;5027366;28;20100;-64
2024/01/29 13:30:05;;;;;;;10.82;10.32;;;;;;;;;;5031344;28;20167;-62
2024/01/29 13:32:32;;;;;;;10.10;9.60;;;;;;;;;;5025708;28;20437;-69
2024/01/29 13:34:57;;;;;;;10.45;9.95;;;;;;;;;;5029677;28;20068;-61
2024/01/29 13:37:22;;;;;;;10.23;9.73;;;;;;;;;;5030880;28;20525;-61
2024/01/29 13:39:48;;;;;;;10.35;9.85;;;;;;;;;;5029612;28;20028;-60
2024/01/29 13:42:13;;;;;;;9.70;9.30;;;;;;;;;;5029043;28;20700;-63
2024/01/29 13:44:39;;;;;;;10.38;9.88;;;;;;;;;;5031509;28;20017;-68
2024/01/29 13:47:04;;;;;;;10.70;10.20;;;;;;;;;;5027815;28;20048;-70
2024/01/29 13:49:30;;;;;;;10.57;10.07;;;;;;;;;;5031776;28;20075;-62
2024/01/29 13:51:56;;;;;;;9.85;9.45;;;;;;;;;;5028912;28;20073;-61
2024/01/29 13:54:21;;;;;;;10.20;9.70;;;;;;;;;;5028540;28;20794;-66
2024/01/29 13:56:47;;;;;;;10.07;9.57;;;;;;;;;;5033714;28;20032;-61
2024/01/29 13:59:12;;;;;;;10.40;9.90;;;;;;;;;;5026645;28;20052;-62
2024/01/29 14:01:38;;;;;;;10.30;9.80;;;;;;;;;;5029910;28;20501;-65
2024/01/29 14:04:03;;;;;;;9.55;9.15;;;;;;;;;;5026558;28;20043;-63
2024/01/29 14:06:29;;;;;;;11.02;10.50;;;;;;;;;;5029723;28;20014;-67
2024/01/29 14:08:54;;;;;;;10.18;9.68;;;;;;;;;;5028532;28;20536;-63
2024/01/29 14:11:20;;;;;;;10.27;9.77;;;;;;;;;;5035283;28;20013;-63
2024/01/29 14:13:45;;;;;;;11.35;10.75;;;;;;;;;;5030267;28;20035;-61
2024/01/29 14:16:11;;;;;;;10.43;9.93;;;;;;;;;;5026975;28;20033;-64